Jrs Mira — V2FS4 — position and weather

sailwx.info

Track history (hours):
 
Tides and Currents Weather Stations Pressure Air Temp Water Temp Dewpoint Dewpoint Depression Visibility Wind Speed Wind Dir Waves Ship Positions

Jrs Mira

Last reported at 2016-May-31 03:33 UTC. Time now 2016-May-31 04:02 UTC.
Position N 54°30' E 011°29'.

Length 107 m; draft 8.5 m.

Type: Cargo ship. MMSI: 305780000.

Date/timePositionNaut miles runAvg speedWind from/ knotsBaromVisibWave heightAir tempDewpointWater temp
2016-May-31 03:33N 54°30' E 011°29'10 9.9
2016-May-31 02:33N 54°34' E 011°13'9 9.4
2016-May-31 01:33N 54°35' E 010°57'1110.5
2016-May-31 00:33N 54°34' E 010°39'1110.7
2016-May-30 23:33N 54°30' E 010°22'10 9.9
2016-May-30 22:34N 54°23' E 010°11'2 1.6
2016-May-30 21:33N 54°22' E 010°08'4 3.7
2016-May-30 20:33N 54°22' E 010°02'7 7.0
2016-May-30 19:33N 54°22' E 009°50'19 5.9
2016-May-30 16:23N 54°10' E 009°25'6 6.8
2016-May-30 15:33N 54°05' E 009°19'3 3.4
2016-May-30 14:33N 54°02' E 009°18'8 7.7
2016-May-30 13:34N 53°55' E 009°12'3 2.8
2016-May-30 12:33N 53°53' E 009°08'6 5.6
2016-May-30 11:33N 53°51' E 008°60'8 7.7
2016-May-30 10:33N 53°50' E 008°47'8 7.7
2016-May-30 09:33N 53°56' E 008°39'9 8.5
2016-May-30 08:33N 53°59' E 008°25'9 9.2
2016-May-30 07:33N 53°60' E 008°09'1010.3
2016-May-30 06:33N 53°57' E 007°52'1110.8
2016-May-30 05:33N 53°55' E 007°34'1111.2
2016-May-30 04:33N 53°52' E 007°16'1211.6
2016-May-30 03:33N 53°49' E 006°57'1211.8
2016-May-30 02:33N 53°47' E 006°37'1211.8
2016-May-30 01:33N 53°44' E 006°18'1211.7
2016-May-30 00:33N 53°40' E 005°59'1211.8
2016-May-29 23:33N 53°36' E 005°40'1212.0
2016-May-29 22:33N 53°32' E 005°21'1211.9
2016-May-29 21:33N 53°29' E 005°02'2310.5
2016-May-29 19:18N 53°13' E 004°33'810.3
2016-May-29 18:33N 53°06' E 004°27'1010.3
2016-May-29 17:33N 52°57' E 004°19'1010.0
2016-May-29 16:33N 52°48' E 004°11'9 9.3
2016-May-29 15:33N 52°41' E 004°01'10 9.5
2016-May-29 14:30N 52°34' E 003°50'10 9.4
2016-May-29 13:29N 52°27' E 003°39'3010.1
2016-May-29 10:30N 52°06' E 003°04'2211.4
2016-May-29 08:33N 51°49' E 002°41'1110.7
2016-May-29 07:33N 51°40' E 002°30'1110.5
2016-May-29 06:29N 51°32' E 002°18'1010.6
2016-May-29 05:33N 51°24' E 002°08'1010.3
2016-May-29 04:33N 51°14' E 002°04'1110.8
2016-May-29 03:33N 51°08' E 001°50'1111.1
2016-May-29 02:33N 50°60' E 001°38'1111.1
2016-May-29 01:31N 50°50' E 001°28'1410.1
2016-May-29 00:07N 50°38' E 001°16'3010.0
2016-May-28 21:10N 50°25' E 000°34'6 9.8
2016-May-28 20:33N 50°24' E 000°25'10 9.6
2016-May-28 19:34N 50°21' E 000°11'9 9.4
2016-May-28 18:33N 50°18' W 000°03'10 9.5
2016-May-28 17:33N 50°16' W 000°18'10 9.8
2016-May-28 16:32N 50°13' W 000°32'1010.5
2016-May-28 15:33N 50°10' W 000°48'2912.5
2016-May-28 13:16N 50°02' W 001°31'6413.1
2016-May-28 08:22N 49°43' W 003°06'2311.4
2016-May-28 06:20N 49°32' W 003°37'911.1
2016-May-28 05:32N 49°27' W 003°49'1110.9
2016-May-28 04:34N 49°22' W 004°03'1110.6
2016-May-28 03:34N 49°16' W 004°17'1010.3
2016-May-28 02:33N 49°10' W 004°30'1010.3
2016-May-28 01:34N 49°05' W 004°43'1010.3
2016-May-28 00:34N 49°00' W 004°57'1110.5
2016-May-27 23:34N 48°55' W 005°11'1111.1
2016-May-27 22:34N 48°49' W 005°26'1111.4
2016-May-27 21:34N 48°42' W 005°39'1212.0
2016-May-27 20:34N 48°32' W 005°48'  
2016-May-25 16:04N 39°09' W 009°50'611.4
2016-May-25 15:33N 39°04' W 009°51'1111.4
2016-May-25 14:33N 38°52' W 009°52'1111.3
2016-May-25 13:33N 38°41' W 009°52'1110.8
2016-May-25 12:31N 38°30' W 009°48'1010.3
2016-May-25 11:33N 38°20' W 009°45'1010.3
2016-May-25 10:33N 38°10' W 009°42'1010.5
2016-May-25 09:33N 38°00' W 009°38'1010.3
2016-May-25 08:33N 37°50' W 009°35'1110.6
2016-May-25 07:34N 37°40' W 009°33'21410.1
2016-May-24 10:21N 35°58' W 005°37'810.1
2016-May-24 09:34N 35°60' W 005°28'1010.3
2016-May-24 08:33N 36°01' W 005°15'205 4.1
2016-May-22 06:20N 37°11' W 001°15'1012.6
2016-May-22 05:33N 37°10' W 001°02'1212.1
2016-May-22 04:33N 37°10' W 000°47'1212.4
2016-May-22 03:33N 37°10' W 000°32'1212.1
2016-May-22 02:33N 37°10' W 000°16'1212.0
2016-May-22 01:33N 37°09' W 000°01'1212.0
2016-May-22 00:33N 37°09' E 000°14'1212.1
2016-May-21 23:33N 37°09' E 000°29'1212.4
2016-May-21 22:33N 37°08' E 000°44'1212.2
2016-May-21 21:33N 37°09' E 000°60'1212.1
2016-May-21 20:33N 37°09' E 001°15'1211.7
2016-May-21 19:33N 37°08' E 001°30'1211.9
2016-May-21 18:33N 37°08' E 001°45'1211.9
2016-May-21 17:33N 37°08' E 001°59'1212.2
2016-May-21 16:33N 37°07' E 002°15'1312.0
2016-May-21 15:26N 37°07' E 002°32'1011.8
2016-May-21 14:33N 37°07' E 002°45'1612.0
2016-May-21 13:13N 37°07' E 003°05'  
Track history (hours):
 
Tides and Currents Weather Stations Pressure Air Temp Water Temp Dewpoint Dewpoint Depression Visibility Wind Speed Wind Dir Waves Ship Positions

Jrs Mira

Last reported at 2016-May-31 03:33 UTC. Time now 2016-May-31 04:02 UTC.
Position N 54°30' E 011°29'.

Length 107 m; draft 8.5 m.

Type: Cargo ship. MMSI: 305780000.

Date/timePositionNaut miles runAvg speedWind from/ knotsBaromVisibWave heightAir tempDewpointWater temp
2016-May-31 03:33N 54°30' E 011°29'10 9.9
2016-May-31 02:33N 54°34' E 011°13'9 9.4
2016-May-31 01:33N 54°35' E 010°57'1110.5
2016-May-31 00:33N 54°34' E 010°39'1110.7
2016-May-30 23:33N 54°30' E 010°22'10 9.9
2016-May-30 22:34N 54°23' E 010°11'2 1.6
2016-May-30 21:33N 54°22' E 010°08'4 3.7
2016-May-30 20:33N 54°22' E 010°02'7 7.0
2016-May-30 19:33N 54°22' E 009°50'19 5.9
2016-May-30 16:23N 54°10' E 009°25'6 6.8
2016-May-30 15:33N 54°05' E 009°19'3 3.4
2016-May-30 14:33N 54°02' E 009°18'8 7.7
2016-May-30 13:34N 53°55' E 009°12'3 2.8
2016-May-30 12:33N 53°53' E 009°08'6 5.6
2016-May-30 11:33N 53°51' E 008°60'8 7.7
2016-May-30 10:33N 53°50' E 008°47'8 7.7
2016-May-30 09:33N 53°56' E 008°39'9 8.5
2016-May-30 08:33N 53°59' E 008°25'9 9.2
2016-May-30 07:33N 53°60' E 008°09'1010.3
2016-May-30 06:33N 53°57' E 007°52'1110.8
2016-May-30 05:33N 53°55' E 007°34'1111.2
2016-May-30 04:33N 53°52' E 007°16'1211.6
2016-May-30 03:33N 53°49' E 006°57'1211.8
2016-May-30 02:33N 53°47' E 006°37'1211.8
2016-May-30 01:33N 53°44' E 006°18'1211.7
2016-May-30 00:33N 53°40' E 005°59'1211.8
2016-May-29 23:33N 53°36' E 005°40'1212.0
2016-May-29 22:33N 53°32' E 005°21'1211.9
2016-May-29 21:33N 53°29' E 005°02'2310.5
2016-May-29 19:18N 53°13' E 004°33'810.3
2016-May-29 18:33N 53°06' E 004°27'1010.3
2016-May-29 17:33N 52°57' E 004°19'1010.0
2016-May-29 16:33N 52°48' E 004°11'9 9.3
2016-May-29 15:33N 52°41' E 004°01'10 9.5
2016-May-29 14:30N 52°34' E 003°50'10 9.4
2016-May-29 13:29N 52°27' E 003°39'3010.1
2016-May-29 10:30N 52°06' E 003°04'2211.4
2016-May-29 08:33N 51°49' E 002°41'1110.7
2016-May-29 07:33N 51°40' E 002°30'1110.5
2016-May-29 06:29N 51°32' E 002°18'1010.6
2016-May-29 05:33N 51°24' E 002°08'1010.3
2016-May-29 04:33N 51°14' E 002°04'1110.8
2016-May-29 03:33N 51°08' E 001°50'1111.1
2016-May-29 02:33N 50°60' E 001°38'1111.1
2016-May-29 01:31N 50°50' E 001°28'1410.1
2016-May-29 00:07N 50°38' E 001°16'3010.0
2016-May-28 21:10N 50°25' E 000°34'6 9.8
2016-May-28 20:33N 50°24' E 000°25'10 9.6
2016-May-28 19:34N 50°21' E 000°11'9 9.4
2016-May-28 18:33N 50°18' W 000°03'10 9.5
2016-May-28 17:33N 50°16' W 000°18'10 9.8
2016-May-28 16:32N 50°13' W 000°32'1010.5
2016-May-28 15:33N 50°10' W 000°48'2912.5
2016-May-28 13:16N 50°02' W 001°31'6413.1
2016-May-28 08:22N 49°43' W 003°06'2311.4
2016-May-28 06:20N 49°32' W 003°37'911.1
2016-May-28 05:32N 49°27' W 003°49'1110.9
2016-May-28 04:34N 49°22' W 004°03'1110.6
2016-May-28 03:34N 49°16' W 004°17'1010.3
2016-May-28 02:33N 49°10' W 004°30'1010.3
2016-May-28 01:34N 49°05' W 004°43'1010.3
2016-May-28 00:34N 49°00' W 004°57'1110.5
2016-May-27 23:34N 48°55' W 005°11'1111.1
2016-May-27 22:34N 48°49' W 005°26'1111.4
2016-May-27 21:34N 48°42' W 005°39'1212.0
2016-May-27 20:34N 48°32' W 005°48'  
2016-May-25 16:04N 39°09' W 009°50'611.4
2016-May-25 15:33N 39°04' W 009°51'1111.4
2016-May-25 14:33N 38°52' W 009°52'1111.3
2016-May-25 13:33N 38°41' W 009°52'1110.8
2016-May-25 12:31N 38°30' W 009°48'1010.3
2016-May-25 11:33N 38°20' W 009°45'1010.3
2016-May-25 10:33N 38°10' W 009°42'1010.5
2016-May-25 09:33N 38°00' W 009°38'1010.3
2016-May-25 08:33N 37°50' W 009°35'1110.6
2016-May-25 07:34N 37°40' W 009°33'21410.1
2016-May-24 10:21N 35°58' W 005°37'810.1
2016-May-24 09:34N 35°60' W 005°28'1010.3
2016-May-24 08:33N 36°01' W 005°15'205 4.1
2016-May-22 06:20N 37°11' W 001°15'1012.6
2016-May-22 05:33N 37°10' W 001°02'1212.1
2016-May-22 04:33N 37°10' W 000°47'1212.4
2016-May-22 03:33N 37°10' W 000°32'1212.1
2016-May-22 02:33N 37°10' W 000°16'1212.0
2016-May-22 01:33N 37°09' W 000°01'1212.0
2016-May-22 00:33N 37°09' E 000°14'1212.1
2016-May-21 23:33N 37°09' E 000°29'1212.4
2016-May-21 22:33N 37°08' E 000°44'1212.2
2016-May-21 21:33N 37°09' E 000°60'1212.1
2016-May-21 20:33N 37°09' E 001°15'1211.7
2016-May-21 19:33N 37°08' E 001°30'1211.9
2016-May-21 18:33N 37°08' E 001°45'1211.9
2016-May-21 17:33N 37°08' E 001°59'1212.2
2016-May-21 16:33N 37°07' E 002°15'1312.0
2016-May-21 15:26N 37°07' E 002°32'1011.8
2016-May-21 14:33N 37°07' E 002°45'1612.0
2016-May-21 13:13N 37°07' E 003°05'  

Dump ship's entire track history